Time;durP1;ratioP1;P1;durP2;ratioP2;P2;SDS_P1;SDS_P2;PMS_P1;PMS_P2;Temp;Humidity;BMP_temperature;BMP_pressure;BME280_temperature;BME280_humidity;BME280_pressure;Samples;Min_cycle;Max_cycle;Signal;HPM_P1;HPM_P2
2023/12/14 00:02:20;;;;;;;;;;;35.30;99.90;;;;;;4994587;28;20218;-71
2023/12/14 00:04:47;;;;;;;;;;;35.60;99.90;;;;;;4994845;28;20160;-71
2023/12/14 00:07:15;;;;;;;;;;;35.20;99.90;;;;;;4971199;28;20197;-71
2023/12/14 00:09:42;;;;;;;;;;;35.40;99.90;;;;;;4993762;28;20264;-73
2023/12/14 00:12:09;;;;;;;;;;;35.90;99.90;;;;;;4993510;28;20193;-71
2023/12/14 00:14:36;;;;;;;;;;;36.20;99.90;;;;;;4993946;28;20142;-71
2023/12/14 00:17:03;;;;;;;;;;;36.60;99.90;;;;;;4994970;28;20238;-72
2023/12/14 00:19:29;;;;;;;;;;;36.90;97.70;;;;;;4994649;28;20224;-72
2023/12/14 00:21:56;;;;;;;;;;;36.20;99.90;;;;;;4993357;28;20197;-70
2023/12/14 00:24:23;;;;;;;;;;;36.40;99.90;;;;;;4994367;28;20286;-70
2023/12/14 00:26:50;;;;;;;;;;;36.40;99.90;;;;;;4994519;28;20225;-71
2023/12/14 00:29:17;;;;;;;;;;;36.90;98.00;;;;;;4976428;28;20164;-73
2023/12/14 00:31:44;;;;;;;;;;;36.80;97.40;;;;;;4993582;28;20185;-71
2023/12/14 00:34:11;;;;;;;;;;;37.10;97.80;;;;;;4994205;28;20220;-72
2023/12/14 00:36:38;;;;;;;;;;;37.80;96.90;;;;;;4994268;28;20154;-72
2023/12/14 00:39:05;;;;;;;;;;;37.60;91.90;;;;;;4993583;28;20138;-72
2023/12/14 00:41:31;;;;;;;;;;;37.80;92.30;;;;;;4994087;28;20164;-72
2023/12/14 00:43:58;;;;;;;;;;;37.70;89.80;;;;;;4977581;28;20180;-73
2023/12/14 00:46:25;;;;;;;;;;;37.40;84.50;;;;;;4994042;28;20211;-71
2023/12/14 00:48:52;;;;;;;;;;;37.40;80.50;;;;;;4994783;28;20182;-72
2023/12/14 00:51:19;;;;;;;;;;;37.40;86.30;;;;;;4995108;28;20165;-69
2023/12/14 00:53:45;;;;;;;;;;;37.70;81.30;;;;;;4976741;28;20272;-70
2023/12/14 00:56:12;;;;;;;;;;;38.00;91.50;;;;;;4994743;28;20248;-72
2023/12/14 00:58:39;;;;;;;;;;;38.30;88.20;;;;;;4995084;28;20580;-72
2023/12/14 01:01:06;;;;;;;;;;;38.60;79.70;;;;;;4995106;28;20558;-69
2023/12/14 01:03:33;;;;;;;;;;;38.20;79.80;;;;;;4995362;28;20182;-71
2023/12/14 01:06:00;;;;;;;;;;;38.20;84.20;;;;;;4994342;28;20675;-70
2023/12/14 01:08:26;;;;;;;;;;;38.40;75.50;;;;;;4994304;28;20147;-69
2023/12/14 01:10:53;;;;;;;;;;;38.20;75.20;;;;;;4994038;28;20150;-72
2023/12/14 01:13:20;;;;;;;;;;;38.60;76.30;;;;;;4994447;28;20256;-71
2023/12/14 01:15:48;;;;;;;;;;;38.50;71.20;;;;;;4994527;28;20171;-71
2023/12/14 01:18:14;;;;;;;;;;;38.60;69.20;;;;;;4994486;28;20625;-69
2023/12/14 01:20:41;;;;;;;;;;;38.90;69.20;;;;;;4976404;28;20200;-70
2023/12/14 01:23:09;;;;;;;;;;;38.80;65.30;;;;;;4994045;28;20201;-72
2023/12/14 01:25:36;;;;;;;;;;;38.60;70.50;;;;;;4994096;28;20181;-69
2023/12/14 01:28:03;;;;;;;;;;;38.80;68.30;;;;;;4993798;28;20234;-71
2023/12/14 01:30:30;;;;;;;;;;;39.00;59.70;;;;;;4994362;28;20166;-69
2023/12/14 01:32:57;;;;;;;;;;;39.10;66.70;;;;;;4994666;28;20138;-72
2023/12/14 01:35:23;;;;;;;;;;;38.80;58.90;;;;;;4994176;28;20254;-72
2023/12/14 01:37:50;;;;;;;;;;;39.10;57.90;;;;;;4994258;28;20151;-74
2023/12/14 01:40:20;;;;;;;;;;;39.50;49.30;;;;;;4994110;28;20173;-71
2023/12/14 01:42:46;;;;;;;;;;;39.50;44.00;;;;;;4994290;28;20187;-72
2023/12/14 01:45:15;;;;;;;;;;;39.50;41.10;;;;;;4994382;28;20176;-70
2023/12/14 01:47:42;;;;;;;;;;;39.00;35.10;;;;;;4993998;28;20176;-69
2023/12/14 01:50:10;;;;;;;4.25;1.48;;;38.80;31.20;;;;;;4993952;28;20531;-73
2023/12/14 01:52:39;;;;;;;3.40;1.73;;;38.90;28.70;;;;;;4994174;28;20171;-73
2023/12/14 01:55:07;;;;;;;3.25;1.13;;;39.50;26.70;;;;;;4993765;28;20698;-73
2023/12/14 01:57:34;;;;;;;5.47;1.15;;;39.20;20.20;;;;;;4994085;28;20237;-74
2023/12/14 02:00:02;;;;;;;2.28;1.30;;;39.60;19.00;;;;;;4994010;28;20182;-73
2023/12/14 02:02:30;;;;;;;4.55;1.23;;;39.80;18.70;;;;;;4994034;28;20182;-72
2023/12/14 02:04:58;;;;;;;5.95;1.38;;;39.90;18.00;;;;;;4993785;28;20224;-74
2023/12/14 02:07:25;;;;;;;4.53;1.27;;;39.30;14.90;;;;;;4993889;28;20201;-73
2023/12/14 02:09:52;;;;;;;;;;;39.20;11.00;;;;;;4993497;28;20209;-70
2023/12/14 02:12:20;;;;;;;1.48;1.10;;;39.20;7.40;;;;;;4993752;28;20186;-72
2023/12/14 02:14:50;;;;;;;3.67;1.00;;;39.20;8.30;;;;;;4993847;28;20209;-71
2023/12/14 02:17:17;;;;;;;3.08;1.10;;;39.30;2.30;;;;;;4993817;28;20295;-70
2023/12/14 02:19:45;;;;;;;3.22;1.02;;;39.40;3.60;;;;;;4993895;28;20186;-71
2023/12/14 02:22:13;;;;;;;1.98;0.90;;;39.50;2.20;;;;;;4993776;28;20179;-71
2023/12/14 02:24:40;;;;;;;1.90;1.20;;;39.70;1.00;;;;;;4993866;28;20174;-71
2023/12/14 02:27:08;;;;;;;2.00;1.00;;;39.50;1.00;;;;;;4993656;28;20210;-72
2023/12/14 02:29:36;;;;;;;3.55;1.33;;;39.80;1.00;;;;;;4993777;28;20240;-70
2023/12/14 02:32:03;;;;;;;5.38;1.10;;;39.80;1.00;;;;;;4993430;28;20182;-71
2023/12/14 02:34:31;;;;;;;5.53;1.17;;;39.70;1.00;;;;;;4993753;28;20171;-72
2023/12/14 02:36:59;;;;;;;3.55;1.30;;;39.70;1.00;;;;;;4993776;28;20178;-74
2023/12/14 02:39:26;;;;;;;3.92;1.30;;;39.80;1.00;;;;;;4993792;28;20182;-72
2023/12/14 02:41:54;;;;;;;5.65;1.20;;;39.60;1.00;;;;;;4993610;28;20249;-71
2023/12/14 02:44:22;;;;;;;4.65;1.08;;;39.80;1.00;;;;;;4993702;28;20177;-72
2023/12/14 02:50:35;;;;;;;8.70;1.23;;;39.80;1.00;;;;;;4994152;28;20635;-70
2023/12/14 02:53:03;;;;;;;5.93;1.17;;;39.70;1.00;;;;;;4993461;28;20270;-72
2023/12/14 02:55:31;;;;;;;3.72;0.85;;;39.60;1.00;;;;;;4993279;28;20710;-70
2023/12/14 02:57:59;;;;;;;4.68;1.30;;;39.70;1.00;;;;;;4993176;28;20252;-70
2023/12/14 03:03:48;;;;;;;3.60;1.25;;;40.00;1.00;;;;;;4994826;28;20181;-70
2023/12/14 03:06:16;;;;;;;4.80;1.20;;;40.00;1.00;;;;;;4996953;28;20588;-70
2023/12/14 03:08:44;;;;;;;2.65;1.33;;;39.60;1.00;;;;;;4996700;28;20178;-70
2023/12/14 03:11:21;;;;;;;4.05;1.10;;;39.20;1.00;;;;;;4996871;28;20174;-70
2023/12/14 03:13:48;;;;;;;4.35;1.40;;;39.50;1.00;;;;;;4996850;28;20211;-72
2023/12/14 03:16:19;;;;;;;4.80;1.48;;;39.90;1.00;;;;;;4996944;28;20262;-70
2023/12/14 03:18:47;;;;;;;6.50;1.15;;;40.20;1.00;;;;;;4996937;28;20179;-73
2023/12/14 03:21:15;;;;;;;4.15;1.15;;;40.50;1.00;;;;;;4996599;28;20546;-73
2023/12/14 03:27:05;;;;;;;4.60;1.20;;;39.60;1.00;;;;;;4996075;28;20233;-73
2023/12/14 03:29:33;;;;;;;3.33;1.10;;;40.40;1.00;;;;;;4996704;28;20182;-70
2023/12/14 03:32:01;;;;;;;1.88;0.90;;;40.60;1.00;;;;;;4995509;28;20187;-68
2023/12/14 03:34:28;;;;;;;2.30;0.75;;;40.70;1.00;;;;;;4995596;28;20692;-75
2023/12/14 03:36:56;;;;;;;2.60;1.15;;;40.40;1.00;;;;;;4995849;28;20198;-71
2023/12/14 03:39:24;;;;;;;5.05;1.25;;;39.90;1.00;;;;;;4996382;28;20183;-69
2023/12/14 03:41:51;;;;;;;1.80;1.00;;;39.90;1.00;;;;;;4993944;28;20237;-71
2023/12/14 03:44:19;;;;;;;3.92;0.88;;;39.50;1.00;;;;;;4994518;28;20210;-71
2023/12/14 03:46:47;;;;;;;5.18;1.05;;;39.80;1.00;;;;;;4995151;28;20663;-69
2023/12/14 03:49:15;;;;;;;6.07;0.95;;;39.90;1.00;;;;;;4996112;28;20174;-70
2023/12/14 03:51:43;;;;;;;3.25;1.00;;;40.30;1.00;;;;;;4996170;28;20186;-71
2023/12/14 03:54:10;;;;;;;4.50;1.00;;;40.30;1.00;;;;;;4995913;28;20562;-73
2023/12/14 03:56:38;;;;;;;5.18;1.30;;;40.90;1.00;;;;;;4995939;28;20706;-70
2023/12/14 04:02:27;;;;;;;6.78;0.93;;;40.20;1.00;;;;;;4995636;28;20224;-70
2023/12/14 04:04:55;;;;;;;4.78;0.77;;;40.10;1.00;;;;;;4995951;28;20293;-72
2023/12/14 04:07:23;;;;;;;2.67;0.90;;;40.70;1.00;;;;;;4995485;28;20631;-71
2023/12/14 04:09:50;;;;;;;3.60;1.05;;;40.30;1.00;;;;;;4995631;28;20181;-69
2023/12/14 04:12:18;;;;;;;4.07;0.90;;;39.80;1.00;;;;;;4995661;28;20660;-72
2023/12/14 04:14:46;;;;;;;3.05;0.88;;;39.80;1.00;;;;;;4994135;28;20207;-70
2023/12/14 04:17:14;;;;;;;4.15;0.93;;;40.00;1.00;;;;;;4995637;28;20186;-69
2023/12/14 04:19:42;;;;;;;8.02;1.13;;;39.80;1.00;;;;;;4995403;28;20182;-69
2023/12/14 04:22:10;;;;;;;3.42;0.77;;;39.90;1.00;;;;;;4994587;28;20641;-71
2023/12/14 04:24:38;;;;;;;1.65;0.90;;;39.40;1.00;;;;;;4972825;28;20202;-76
2023/12/14 04:27:05;;;;;;;6.05;0.70;;;39.60;1.00;;;;;;4993847;28;20297;-74
2023/12/14 04:29:33;;;;;;;3.08;1.08;;;39.40;1.00;;;;;;4993196;28;21362;-73
2023/12/14 04:32:01;;;;;;;1.55;0.70;;;39.00;1.00;;;;;;4993123;28;20197;-74
2023/12/14 04:34:29;;;;;;;1.50;0.85;;;38.80;1.00;;;;;;4993977;28;20697;-77
2023/12/14 04:36:57;;;;;;;3.90;1.00;;;39.10;1.00;;;;;;4993584;28;20182;-74
2023/12/14 04:39:26;;;;;;;6.93;1.00;;;39.90;1.00;;;;;;4976852;28;20226;-73
2023/12/14 04:41:56;;;;;;;5.45;1.02;;;39.70;1.00;;;;;;4993469;28;20214;-70
2023/12/14 04:44:24;;;;;;;2.08;1.00;;;39.20;1.00;;;;;;4993722;28;20241;-73
2023/12/14 04:46:52;;;;;;;6.32;0.98;;;39.40;1.00;;;;;;4993149;28;20268;-75
2023/12/14 04:49:20;;;;;;;2.00;0.82;;;39.90;1.00;;;;;;4992521;28;20710;-75
2023/12/14 04:51:48;;;;;;;2.92;0.90;;;39.90;1.00;;;;;;4993228;28;20175;-76
2023/12/14 04:54:15;;;;;;;1.63;0.75;;;40.40;1.00;;;;;;4992789;28;20175;-74
2023/12/14 04:56:46;;;;;;;2.83;0.75;;;40.30;1.00;;;;;;4993268;28;20645;-75
2023/12/14 04:59:14;;;;;;;4.93;0.80;;;40.10;1.00;;;;;;4993156;28;20183;-72
2023/12/14 05:01:42;;;;;;;8.85;1.02;;;39.80;1.00;;;;;;4973416;28;20195;-70
2023/12/14 05:04:10;;;;;;;4.45;0.90;;;39.10;1.00;;;;;;4979873;28;20181;-68
2023/12/14 05:06:39;;;;;;;6.95;0.88;;;39.50;1.00;;;;;;4992639;28;20324;-74
2023/12/14 05:09:07;;;;;;;4.07;1.00;;;39.80;1.00;;;;;;4992516;28;20278;-74
2023/12/14 05:11:35;;;;;;;6.75;0.70;;;39.80;1.00;;;;;;4993009;28;20270;-75
2023/12/14 05:14:03;;;;;;;9.68;0.73;;;39.90;1.00;;;;;;4992841;28;20197;-72
2023/12/14 05:16:31;;;;;;;6.03;0.70;;;39.90;1.00;;;;;;4992148;28;20269;-73
2023/12/14 05:18:59;;;;;;;3.95;0.90;;;39.90;1.00;;;;;;4975382;28;20699;-72
2023/12/14 05:21:26;;;;;;;6.60;0.90;;;39.70;1.00;;;;;;4992856;28;20202;-70
2023/12/14 05:23:54;;;;;;;10.35;1.00;;;39.90;1.00;;;;;;4992417;28;20174;-71
2023/12/14 05:26:22;;;;;;;6.25;0.73;;;39.80;1.00;;;;;;4992493;28;20206;-72
2023/12/14 05:28:49;;;;;;;10.00;0.93;;;40.00;1.00;;;;;;4992944;28;20171;-76
2023/12/14 05:31:18;;;;;;;7.28;0.90;;;40.00;1.00;;;;;;4992742;28;20186;-72
2023/12/14 05:33:45;;;;;;;4.30;0.93;;;39.70;1.00;;;;;;4994005;28;20253;-73
2023/12/14 05:36:13;;;;;;;4.30;1.00;;;39.60;1.00;;;;;;4994081;28;20209;-70
2023/12/14 05:38:41;;;;;;;5.25;1.05;;;39.70;1.00;;;;;;4993329;28;20714;-69
2023/12/14 05:41:10;;;;;;;6.28;0.80;;;39.50;1.00;;;;;;4993846;28;20632;-75
2023/12/14 05:43:37;;;;;;;4.75;1.23;;;39.40;1.00;;;;;;4993431;28;20175;-76
2023/12/14 05:46:05;;;;;;;3.38;0.77;;;39.40;1.00;;;;;;4992395;28;20684;-76
2023/12/14 05:48:33;;;;;;;5.38;0.98;;;39.20;1.00;;;;;;4992343;28;20190;-69
2023/12/14 05:51:01;;;;;;;8.50;0.93;;;39.00;1.00;;;;;;4992396;28;20182;-75
2023/12/14 05:53:29;;;;;;;4.40;1.15;;;39.00;1.00;;;;;;4991718;28;20318;-74
2023/12/14 05:55:57;;;;;;;5.68;0.90;;;39.10;1.00;;;;;;4991896;28;20249;-74
2023/12/14 05:58:25;;;;;;;2.80;0.73;;;39.00;1.00;;;;;;4992379;28;20273;-75
2023/12/14 06:00:53;;;;;;;3.40;0.73;;;39.10;1.00;;;;;;4991399;28;20197;-74
2023/12/14 06:03:20;;;;;;;7.55;1.52;;;39.10;1.00;;;;;;4992166;28;20271;-74
2023/12/14 06:05:48;;;;;;;3.85;1.23;;;39.00;1.00;;;;;;4992301;28;20232;-75
2023/12/14 06:08:16;;;;;;;3.22;0.88;;;39.20;1.00;;;;;;4991689;28;20292;-75
2023/12/14 06:10:43;;;;;;;4.07;0.80;;;39.20;1.00;;;;;;4991651;28;20207;-73
2023/12/14 06:13:11;;;;;;;4.15;0.90;;;39.20;1.00;;;;;;4991909;28;20622;-73
2023/12/14 06:15:39;;;;;;;2.03;1.00;;;39.20;1.00;;;;;;4991767;28;20194;-74
2023/12/14 06:18:07;;;;;;;4.95;0.85;;;39.30;1.00;;;;;;4991812;28;20174;-73
2023/12/14 06:20:34;;;;;;;4.47;1.15;;;39.40;1.00;;;;;;4991842;28;20636;-73
2023/12/14 06:23:02;;;;;;;1.98;0.93;;;39.40;1.00;;;;;;4990982;28;20612;-77
2023/12/14 06:25:30;;;;;;;3.50;0.75;;;39.00;1.00;;;;;;4991879;28;20187;-72
2023/12/14 06:27:57;;;;;;;3.35;0.98;;;38.90;1.00;;;;;;4992089;28;20269;-78
2023/12/14 06:30:25;;;;;;;6.97;1.00;;;39.00;1.00;;;;;;4991875;28;20261;-74
2023/12/14 06:32:53;;;;;;;1.77;1.17;;;39.00;1.00;;;;;;4992109;28;20547;-77
2023/12/14 06:35:21;;;;;;;3.80;0.75;;;38.80;1.00;;;;;;4992221;28;20174;-71
2023/12/14 06:37:49;;;;;;;5.15;0.90;;;38.50;1.00;;;;;;4991909;28;20178;-69
2023/12/14 06:40:18;;;;;;;1.45;0.85;;;38.40;1.00;;;;;;4977993;28;20652;-70
2023/12/14 06:42:46;;;;;;;4.45;1.00;;;38.70;1.00;;;;;;4995483;28;20193;-70
2023/12/14 06:45:14;;;;;;;3.47;1.10;;;38.60;1.00;;;;;;4995413;28;20178;-73
2023/12/14 06:47:43;;;;;;;0.98;0.75;;;38.40;1.00;;;;;;4995893;28;20214;-71
2023/12/14 06:50:12;;;;;;;2.50;1.00;;;38.30;1.00;;;;;;4995408;28;20261;-70
2023/12/14 06:52:40;;;;;;;2.95;0.98;;;38.40;1.00;;;;;;4995292;28;20301;-71
2023/12/14 06:55:09;;;;;;;1.90;0.90;;;38.40;1.00;;;;;;4995720;28;20218;-76
2023/12/14 06:57:40;;;;;;;2.72;0.80;;;38.10;1.00;;;;;;4995418;28;20183;-73
2023/12/14 07:00:09;;;;;;;1.92;0.90;;;38.00;1.00;;;;;;4995933;28;20193;-77
2023/12/14 07:02:37;;;;;;;3.47;1.02;;;38.00;1.00;;;;;;4997227;28;20182;-73
2023/12/14 07:05:05;;;;;;;3.45;1.13;;;38.10;1.00;;;;;;4996595;28;20184;-72
2023/12/14 07:07:32;;;;;;;3.80;0.80;;;37.90;1.00;;;;;;4973448;28;20215;-71
2023/12/14 07:10:01;;;;;;;1.83;0.80;;;37.70;1.00;;;;;;4994967;28;20582;-74
2023/12/14 07:12:28;;;;;;;3.47;0.88;;;37.80;1.00;;;;;;4996537;28;20702;-79
2023/12/14 07:14:56;;;;;;;1.50;0.80;;;37.70;1.00;;;;;;4995135;28;20203;-72
2023/12/14 07:17:24;;;;;;;1.08;0.68;;;37.60;1.00;;;;;;4995319;28;20189;-70
2023/12/14 07:19:53;;;;;;;2.25;0.77;;;37.50;1.00;;;;;;4995022;28;20175;-71
2023/12/14 07:22:21;;;;;;;0.65;0.55;;;37.40;1.00;;;;;;4994014;28;20243;-76
2023/12/14 07:24:49;;;;;;;3.88;0.80;;;37.40;1.00;;;;;;4995623;28;20174;-71
2023/12/14 07:27:16;;;;;;;3.28;0.90;;;37.30;1.00;;;;;;4995646;28;20234;-73
2023/12/14 07:29:44;;;;;;;1.75;0.80;;;37.20;1.00;;;;;;4994397;28;20229;-73
2023/12/14 07:32:12;;;;;;;5.28;0.82;;;37.30;1.00;;;;;;4994861;28;20194;-77
2023/12/14 07:34:40;;;;;;;3.00;0.70;;;37.20;1.00;;;;;;4994913;28;20178;-73
2023/12/14 07:37:08;;;;;;;1.13;0.50;;;37.00;1.00;;;;;;4994494;28;20532;-68
2023/12/14 07:39:35;;;;;;;1.30;0.60;;;37.00;1.00;;;;;;4977314;28;20614;-71
2023/12/14 07:42:03;;;;;;;1.58;0.50;;;36.90;1.00;;;;;;4994393;28;20930;-70
2023/12/14 07:44:31;;;;;;;2.97;0.77;;;36.90;1.00;;;;;;4993592;28;20652;-72
2023/12/14 07:47:03;;;;;;;2.33;0.80;;;36.80;1.00;;;;;;4977270;28;20215;-77
2023/12/14 07:49:31;;;;;;;1.73;0.85;;;36.70;1.00;;;;;;4994116;28;20273;-69
2023/12/14 07:51:59;;;;;;;1.90;0.65;;;36.70;1.00;;;;;;4993909;28;20213;-69
2023/12/14 07:54:26;;;;;;;7.18;1.25;;;36.70;1.00;;;;;;4992811;28;20290;-70
2023/12/14 07:56:54;;;;;;;5.00;0.95;;;36.50;1.00;;;;;;4994109;28;20349;-69
2023/12/14 07:59:22;;;;;;;3.10;0.60;;;36.30;1.00;;;;;;4994159;28;20182;-72
2023/12/14 08:01:50;;;;;;;1.60;0.80;;;36.30;1.00;;;;;;4976840;28;20186;-74
2023/12/14 08:04:18;;;;;;;3.75;0.70;;;36.20;1.00;;;;;;4994335;28;20175;-74
2023/12/14 08:06:45;;;;;;;3.22;0.80;;;36.10;1.00;;;;;;4993022;28;20312;-72
2023/12/14 08:09:13;;;;;;;1.67;0.68;;;36.00;1.00;;;;;;4993238;28;20178;-70
2023/12/14 08:11:41;;;;;;;2.67;0.75;;;36.10;1.00;;;;;;4993912;28;20229;-70
2023/12/14 08:14:08;;;;;;;1.15;0.60;;;36.00;1.00;;;;;;4992973;28;20622;-70
2023/12/14 08:16:36;;;;;;;1.85;0.90;;;35.80;1.00;;;;;;4993133;28;20278;-71
2023/12/14 08:19:04;;;;;;;1.23;0.55;;;35.70;1.00;;;;;;4990970;28;20186;-71
2023/12/14 08:21:32;;;;;;;1.08;0.60;;;35.50;1.00;;;;;;4993212;28;20218;-71
2023/12/14 08:24:00;;;;;;;1.42;0.68;;;35.40;1.00;;;;;;4994025;28;20171;-70
2023/12/14 08:26:27;;;;;;;4.80;0.50;;;35.30;1.00;;;;;;4993930;28;20214;-72
2023/12/14 08:28:55;;;;;;;3.72;0.60;;;35.10;1.00;;;;;;4993592;28;20270;-71
2023/12/14 08:31:23;;;;;;;3.25;0.57;;;35.10;1.00;;;;;;4993783;28;20305;-71
2023/12/14 08:33:52;;;;;;;3.05;0.70;;;35.00;1.00;;;;;;4994200;28;20605;-72
2023/12/14 08:36:20;;;;;;;1.63;0.57;;;34.90;1.00;;;;;;4993331;28;20179;-71
2023/12/14 08:38:47;;;;;;;3.85;0.80;;;34.70;1.00;;;;;;4992887;28;20186;-72
2023/12/14 08:41:15;;;;;;;3.75;0.65;;;34.60;1.00;;;;;;4992870;28;20534;-71
2023/12/14 08:43:43;;;;;;;0.90;0.50;;;34.50;1.00;;;;;;4993206;28;20178;-71
2023/12/14 08:46:11;;;;;;;3.20;0.70;;;34.40;1.00;;;;;;4993510;28;20227;-71
2023/12/14 08:48:39;;;;;;;2.65;0.68;;;34.30;1.00;;;;;;4993168;28;20409;-71
2023/12/14 08:51:07;;;;;;;0.98;0.50;;;34.20;1.00;;;;;;4994662;28;20198;-70
2023/12/14 08:53:35;;;;;;;4.45;0.70;;;34.10;1.00;;;;;;4994803;28;20178;-70
2023/12/14 08:56:03;;;;;;;5.15;0.70;;;34.00;1.00;;;;;;4992330;28;20230;-69
2023/12/14 08:58:30;;;;;;;2.20;0.52;;;33.90;1.00;;;;;;4994531;28;20186;-70
2023/12/14 09:00:58;;;;;;;1.70;0.50;;;33.90;1.00;;;;;;4993914;28;20190;-69
2023/12/14 09:03:26;;;;;;;2.58;1.13;;;33.80;1.00;;;;;;4994991;28;20180;-69
2023/12/14 09:05:54;;;;;;;3.20;0.70;;;33.70;1.00;;;;;;4994923;28;20213;-69
2023/12/14 09:08:21;;;;;;;5.15;0.90;;;33.60;1.00;;;;;;4994493;28;20190;-69
2023/12/14 09:10:49;;;;;;;5.75;0.80;;;33.50;1.00;;;;;;4994795;28;20171;-70
2023/12/14 09:13:17;;;;;;;3.30;0.80;;;33.40;1.00;;;;;;4994848;28;20190;-71
2023/12/14 09:15:45;;;;;;;3.90;1.00;;;33.40;1.00;;;;;;4977004;28;20545;-69
2023/12/14 09:18:12;;;;;;;3.15;0.70;;;33.30;1.00;;;;;;4994436;28;20189;-70
2023/12/14 09:20:42;;;;;;;0.82;0.50;;;33.10;1.00;;;;;;4994704;28;20206;-71
2023/12/14 09:23:10;;;;;;;1.80;0.50;;;33.10;1.00;;;;;;4977017;28;20228;-71
2023/12/14 09:25:39;;;;;;;1.48;0.70;;;33.00;1.00;;;;;;4994299;28;20305;-70
2023/12/14 09:28:07;;;;;;;4.35;0.90;;;33.00;1.00;;;;;;4994177;28;20246;-71
2023/12/14 09:30:35;;;;;;;1.40;0.70;;;32.90;1.00;;;;;;4994505;28;20171;-71
2023/12/14 09:33:03;;;;;;;3.55;0.73;;;32.80;1.00;;;;;;4994505;28;20261;-70
2023/12/14 09:35:31;;;;;;;2.17;0.43;;;32.70;1.00;;;;;;4977292;28;20175;-71
2023/12/14 09:37:58;;;;;;;0.70;0.50;;;32.70;1.00;;;;;;4994329;28;20178;-70
2023/12/14 09:40:26;;;;;;;2.80;0.40;;;32.70;1.00;;;;;;4972488;28;20186;-70
2023/12/14 09:42:55;;;;;;;3.40;0.77;;;32.70;1.00;;;;;;4992812;28;20237;-71
2023/12/14 09:45:29;;;;;;;1.63;0.40;;;32.60;1.00;;;;;;4992071;28;20312;-70
2023/12/14 09:48:01;;;;;;;1.55;0.45;;;32.60;1.00;;;;;;4993823;28;20564;-71
2023/12/14 09:50:31;;;;;;;0.75;0.75;;;32.50;1.20;;;;;;4994135;28;20194;-71
2023/12/14 09:52:58;;;;;;;1.92;0.60;;;32.40;1.30;;;;;;4977120;28;20258;-71
2023/12/14 09:55:26;;;;;;;3.70;0.68;;;32.40;1.30;;;;;;4993508;28;20226;-70
2023/12/14 09:57:54;;;;;;;3.80;0.65;;;32.30;1.50;;;;;;4994223;28;20179;-70
2023/12/14 10:00:40;;;;;;;1.90;0.60;;;32.30;1.80;;;;;;4994401;28;20183;-69
2023/12/14 10:03:28;;;;;;;3.13;0.52;;;32.30;2.00;;;;;;4994566;28;20186;-70
2023/12/14 10:05:57;;;;;;;1.08;0.57;;;32.30;2.30;;;;;;4976774;28;20687;-71
2023/12/14 10:08:28;;;;;;;5.97;0.60;;;32.20;2.50;;;;;;4994714;28;20189;-70
2023/12/14 10:10:56;;;;;;;4.57;0.52;;;32.10;3.30;;;;;;4994510;28;20171;-69
2023/12/14 10:13:37;;;;;;;0.70;0.50;;;32.10;3.20;;;;;;4993739;28;20202;-70
2023/12/14 10:16:05;;;;;;;4.93;0.90;;;32.00;3.70;;;;;;4995589;28;20174;-69
2023/12/14 10:18:37;;;;;;;5.00;0.88;;;31.90;4.20;;;;;;4993786;28;20186;-69
2023/12/14 10:21:07;;;;;;;1.17;0.45;;;31.80;4.60;;;;;;4976234;28;20277;-70
2023/12/14 10:23:35;;;;;;;1.85;0.50;;;31.80;5.10;;;;;;4993760;28;20505;-70
2023/12/14 10:26:06;;;;;;;1.33;0.47;;;31.60;4.70;;;;;;4976421;28;20766;-69
2023/12/14 10:28:34;;;;;;;1.25;0.63;;;31.50;5.40;;;;;;4993405;28;20178;-69
2023/12/14 10:31:02;;;;;;;1.70;0.60;;;31.40;7.00;;;;;;4993893;28;20179;-69
2023/12/14 10:33:29;;;;;;;11.27;2.35;;;31.20;9.90;;;;;;4993950;28;20236;-69
2023/12/14 10:35:58;;;;;;;20.38;3.90;;;31.00;27.40;;;;;;4993963;28;20258;-69
2023/12/14 10:38:27;;;;;;;16.73;4.53;;;30.30;99.90;;;;;;4994312;28;20527;-71
2023/12/14 10:40:57;;;;;;;19.58;5.68;;;29.60;99.90;;;;;;4994573;28;20321;-70
2023/12/14 10:43:59;;;;;;;20.60;5.53;;;28.70;99.90;;;;;;4993730;28;20179;-69
2023/12/14 10:46:28;;;;;;;26.73;6.00;;;28.10;99.90;;;;;;4976333;28;20222;-69
2023/12/14 10:48:56;;;;;;;21.20;5.50;;;27.50;99.90;;;;;;4994052;28;20182;-71
2023/12/14 10:51:27;;;;;;;20.47;5.67;;;27.10;99.90;;;;;;4993877;28;20178;-70
2023/12/14 10:53:57;;;;;;;25.43;5.27;;;26.90;99.90;;;;;;4993187;28;20190;-70
2023/12/14 10:56:24;;;;;;;28.43;6.33;;;26.70;99.90;;;;;;4993337;28;20231;-72
2023/12/14 11:02:15;;;;;;;21.10;5.90;;;26.30;99.90;;;;;;4992255;28;20194;-70
2023/12/14 11:05:05;;;;;;;27.67;5.80;;;26.20;99.90;;;;;;4992695;28;20186;-70
2023/12/14 11:07:54;;;;;;;29.87;5.70;;;26.10;99.90;;;;;;4992977;28;20258;-71
2023/12/14 11:10:23;;;;;;;25.13;5.80;;;25.90;99.90;;;;;;4993014;28;20194;-71
2023/12/14 11:13:04;;;;;;;29.83;5.07;;;25.80;99.90;;;;;;4993189;28;20190;-70
2023/12/14 11:15:34;;;;;;;24.47;5.40;;;25.70;99.90;;;;;;4993356;28;20281;-71
2023/12/14 11:18:11;;;;;;;31.83;6.33;;;25.60;99.90;;;;;;4979048;28;20187;-70
2023/12/14 11:20:53;;;;;;;20.93;4.63;;;25.60;99.90;;;;;;4988343;28;20182;-70
2023/12/14 11:23:31;;;;;;;24.37;4.57;;;25.40;99.90;;;;;;4992270;28;20262;-70
2023/12/14 11:26:08;;;;;;;19.33;4.00;;;25.20;99.90;;;;;;4994751;28;20221;-70
2023/12/14 11:28:44;;;;;;;26.60;6.00;;;25.10;99.90;;;;;;4996962;28;20182;-71
2023/12/14 11:31:13;;;;;;;27.73;5.50;;;25.00;99.90;;;;;;4995632;28;20182;-71
2023/12/14 11:33:41;;;;;;;28.77;5.37;;;24.90;99.90;;;;;;4997986;28;20178;-71
2023/12/14 11:36:09;;;;;;;28.30;5.03;;;24.80;99.90;;;;;;4998090;28;20249;-70
2023/12/14 11:38:37;;;;;;;22.67;4.77;;;24.70;99.90;;;;;;4997953;28;20277;-70
2023/12/14 11:41:05;;;;;;;27.73;5.67;;;24.60;99.90;;;;;;4999002;28;20217;-70
2023/12/14 11:43:43;;;;;;;27.67;5.83;;;24.60;99.90;;;;;;4979672;28;20210;-69
2023/12/14 11:46:12;;;;;;;32.77;5.17;;;24.40;99.90;;;;;;4996863;28;20232;-70
2023/12/14 11:48:40;;;;;;;30.07;6.63;;;24.30;99.90;;;;;;4996299;28;20186;-69
2023/12/14 11:51:08;;;;;;;27.17;5.50;;;24.20;99.90;;;;;;4995782;28;20181;-70
2023/12/14 11:53:39;;;;;;;26.00;6.13;;;24.20;99.90;;;;;;4994083;28;20226;-70
2023/12/14 11:56:08;;;;;;;27.63;4.73;;;24.10;99.90;;;;;;4996127;28;20222;-69
2023/12/14 11:58:35;;;;;;;26.70;5.20;;;24.20;99.90;;;;;;4996016;28;20275;-69
2023/12/14 12:04:27;;;;;;;23.80;4.70;;;24.00;99.90;;;;;;4992052;28;20197;-70
2023/12/14 12:07:21;;;;;;;21.13;4.77;;;24.00;99.90;;;;;;4995630;28;20249;-70
2023/12/14 12:09:49;;;;;;;24.60;5.87;;;23.90;99.90;;;;;;4992684;28;20198;-70
2023/12/14 12:12:17;;;;;;;25.67;5.03;;;23.80;99.90;;;;;;4995719;28;20191;-68
2023/12/14 12:14:45;;;;;;;23.97;5.53;;;23.80;99.90;;;;;;4995629;28;20194;-69
2023/12/14 12:17:14;;;;;;;24.20;4.90;;;23.80;99.90;;;;;;4995298;28;20691;-70
2023/12/14 12:19:42;;;;;;;23.83;5.40;;;23.70;99.90;;;;;;4995792;28;20185;-70
2023/12/14 12:22:10;;;;;;;28.53;5.10;;;23.70;99.90;;;;;;4975500;28;20649;-69
2023/12/14 12:24:37;;;;;;;22.07;4.50;;;23.70;99.90;;;;;;4995557;28;20197;-68
2023/12/14 12:27:05;;;;;;;29.87;4.73;;;23.70;99.90;;;;;;4995847;28;20217;-69
2023/12/14 12:29:32;;;;;;;29.10;5.17;;;23.70;99.90;;;;;;4995330;28;20186;-70
2023/12/14 12:31:59;;;;;;;25.67;5.13;;;23.60;99.90;;;;;;4995201;28;20197;-69
2023/12/14 12:34:27;;;;;;;20.73;5.20;;;23.60;99.90;;;;;;4997175;28;20620;-71
2023/12/14 12:36:57;;;;;;;23.43;4.57;;;23.50;99.90;;;;;;4996318;28;20191;-70
2023/12/14 12:39:25;;;;;;;18.30;4.43;;;23.50;99.90;;;;;;4996039;28;20183;-70
2023/12/14 12:41:52;;;;;;;27.10;5.70;;;23.40;99.90;;;;;;4997832;28;20166;-70
2023/12/14 12:44:19;;;;;;;22.20;4.37;;;23.40;99.90;;;;;;4996765;28;20182;-71
2023/12/14 12:46:46;;;;;;;22.13;6.37;;;23.50;99.90;;;;;;4996573;28;20762;-71
2023/12/14 12:49:14;;;;;;;27.93;5.53;;;23.50;99.90;;;;;;4996237;28;20555;-70
2023/12/14 12:51:41;;;;;;;26.57;5.63;;;23.60;99.90;;;;;;4988501;28;20190;-70
2023/12/14 12:54:08;;;;;;;22.80;4.97;;;23.60;99.90;;;;;;4995493;28;20187;-70
2023/12/14 12:56:36;;;;;;;22.90;5.57;;;23.60;99.90;;;;;;4996094;28;20234;-70
2023/12/14 12:59:04;;;;;;;23.87;4.87;;;23.50;99.90;;;;;;4996040;28;20194;-71
2023/12/14 13:01:31;;;;;;;21.37;4.00;;;23.40;99.90;;;;;;4994745;28;20201;-70
2023/12/14 13:04:00;;;;;;;20.87;5.23;;;23.20;99.90;;;;;;4994784;28;20183;-70
2023/12/14 13:06:28;;;;;;;27.03;4.70;;;23.20;99.90;;;;;;4994038;28;20664;-70
2023/12/14 13:08:55;;;;;;;30.23;4.57;;;23.30;99.90;;;;;;4977239;28;20286;-70
2023/12/14 13:11:23;;;;;;;21.10;4.60;;;23.30;99.90;;;;;;4994596;28;20189;-70
2023/12/14 13:13:50;;;;;;;22.57;3.77;;;23.20;99.90;;;;;;4977153;28;20206;-70
2023/12/14 13:16:17;;;;;;;22.40;4.33;;;23.20;99.90;;;;;;4995031;28;20214;-70
2023/12/14 13:18:45;;;;;;;21.90;4.67;;;23.20;99.90;;;;;;4994455;28;20588;-70
2023/12/14 13:21:13;;;;;;;24.00;4.97;;;23.30;99.90;;;;;;4994332;28;20278;-71
2023/12/14 13:23:40;;;;;;;18.43;4.60;;;23.20;99.90;;;;;;4976774;28;20183;-70
2023/12/14 13:26:08;;;;;;;23.57;4.20;;;23.30;99.90;;;;;;4993820;28;20202;-71
2023/12/14 13:28:35;;;;;;;27.33;4.87;;;23.30;99.90;;;;;;4994199;28;20182;-70
2023/12/14 13:31:03;;;;;;;19.40;3.80;;;23.50;99.90;;;;;;4993603;28;20174;-71